Time;durP1;ratioP1;P1;durP2;ratioP2;P2;SDS_P1;SDS_P2;PMS_P1;PMS_P2;Temp;Humidity;BMP_temperature;BMP_pressure;BME280_temperature;BME280_humidity;BME280_pressure;Samples;Min_cycle;Max_cycle;Signal;HPM_P1;HPM_P2
2022/01/06 00:01:16;;;;;;;11.50;3.53;;;;;;;3.84;81.38;100056.50;5016681;28;20625;-70
2022/01/06 00:03:43;;;;;;;7.83;2.03;;;;;;;3.86;80.64;100062.56;5023637;28;20490;-70
2022/01/06 00:06:10;;;;;;;7.40;1.90;;;;;;;3.86;81.04;100059.91;5021462;28;20575;-70
2022/01/06 00:08:39;;;;;;;6.77;2.23;;;;;;;3.87;81.21;100071.31;5019668;28;20202;-70
2022/01/06 00:11:10;;;;;;;15.00;2.63;;;;;;;3.84;80.52;100064.41;5017542;28;20632;-70
2022/01/06 00:13:48;;;;;;;13.30;2.27;;;;;;;3.86;81.15;100066.97;5024125;28;20203;-70
2022/01/06 00:16:26;;;;;;;9.70;1.97;;;;;;;3.84;80.69;100074.94;5016492;28;20211;-70
2022/01/06 00:24:27;;;;;;;8.70;2.43;;;;;;;3.84;81.32;100091.59;5017151;28;20226;-70
2022/01/06 00:26:54;;;;;;;7.60;1.90;;;;;;;3.84;81.41;100093.38;5020440;28;20218;-70
2022/01/06 00:29:21;;;;;;;9.23;1.47;;;;;;;3.83;80.99;100091.66;5018049;28;20210;-69
2022/01/06 00:31:48;;;;;;;12.63;2.13;;;;;;;3.82;81.53;100088.16;5014500;28;20230;-69
2022/01/06 00:34:14;;;;;;;10.20;1.83;;;;;;;3.78;81.66;100102.41;5024653;28;20217;-69
2022/01/06 00:36:42;;;;;;;8.00;2.00;;;;;;;3.77;81.47;100094.56;5034590;28;20206;-70
2022/01/06 00:39:11;;;;;;;10.57;1.90;;;;;;;3.79;81.20;100087.44;5027019;28;20202;-69
2022/01/06 00:41:39;;;;;;;6.20;1.70;;;;;;;3.80;81.15;100103.19;5019103;28;20222;-70
2022/01/06 00:44:07;;;;;;;11.87;1.83;;;;;;;3.81;80.74;100101.41;5031151;28;20213;-70
2022/01/06 00:46:34;;;;;;;5.30;1.30;;;;;;;3.79;81.12;100105.88;5025606;28;21184;-70
2022/01/06 00:49:00;;;;;;;9.63;2.20;;;;;;;3.79;81.19;100106.75;5027461;28;20214;-70
2022/01/06 00:51:27;;;;;;;10.90;1.53;;;;;;;3.79;81.70;100116.41;5027541;28;20221;-70
2022/01/06 00:53:53;;;;;;;6.47;1.77;;;;;;;3.78;81.37;100122.59;5026985;28;20206;-70
2022/01/06 00:56:20;;;;;;;10.93;1.33;;;;;;;3.78;81.49;100123.47;5025674;28;20202;-70
2022/01/06 00:58:48;;;;;;;3.27;1.47;;;;;;;3.74;82.41;100129.81;5022825;28;20616;-70
2022/01/06 01:01:15;;;;;;;8.37;1.80;;;;;;;3.72;82.08;100142.19;5028637;28;20238;-70
2022/01/06 01:03:41;;;;;;;4.70;2.00;;;;;;;3.69;82.15;100144.94;5021645;28;20218;-70
2022/01/06 01:06:07;;;;;;;6.80;1.50;;;;;;;3.66;82.61;100157.38;5022501;28;20207;-70
2022/01/06 01:08:34;;;;;;;6.00;1.30;;;;;;;3.58;83.34;100157.72;5019676;28;20225;-70
2022/01/06 01:11:01;;;;;;;7.77;1.57;;;;;;;3.58;82.95;100165.63;5020113;28;20240;-70
2022/01/06 01:13:30;;;;;;;8.93;1.77;;;;;;;3.54;83.36;100185.09;5024618;28;20202;-70
2022/01/06 01:16:09;;;;;;;6.07;1.40;;;;;;;3.53;83.22;100200.97;5020584;28;20573;-70
2022/01/06 01:18:36;;;;;;;7.30;2.13;;;;;;;3.51;83.68;100221.22;5028782;28;20245;-70
2022/01/06 01:21:02;;;;;;;1.67;1.10;;;;;;;3.44;83.28;100232.00;5019271;28;20226;-70
2022/01/06 01:23:29;;;;;;;5.23;1.20;;;;;;;3.34;82.66;100235.06;5026864;28;20209;-70
2022/01/06 01:25:55;;;;;;;3.30;0.90;;;;;;;3.23;83.04;100227.59;5021915;28;20207;-70
2022/01/06 01:28:22;;;;;;;1.67;0.83;;;;;;;3.13;82.86;100242.03;5026138;28;20198;-70
2022/01/06 01:31:04;;;;;;;4.27;0.90;;;;;;;3.06;82.61;100249.31;5028703;28;20234;-70
2022/01/06 01:33:32;;;;;;;3.10;0.80;;;;;;;2.99;82.93;100258.38;5020239;28;20265;-70
2022/01/06 01:35:58;;;;;;;3.13;1.00;;;;;;;2.91;83.29;100265.69;5020049;28;20243;-70
2022/01/06 01:38:25;;;;;;;5.40;0.77;;;;;;;2.87;83.45;100271.13;5019752;28;20225;-70
2022/01/06 01:40:52;;;;;;;5.93;1.00;;;;;;;2.82;83.58;100276.56;5022307;28;20254;-70
2022/01/06 01:43:18;;;;;;;5.33;1.20;;;;;;;2.77;82.90;100287.25;5020054;28;20199;-70
2022/01/06 01:45:46;;;;;;;1.13;0.80;;;;;;;2.73;82.94;100296.16;5020294;28;20209;-70
2022/01/06 01:48:21;;;;;;;2.00;0.83;;;;;;;2.70;83.71;100309.41;5020229;28;20727;-70
2022/01/06 01:50:49;;;;;;;1.97;0.80;;;;;;;2.66;83.21;100313.09;5023460;28;20714;-70
2022/01/06 01:53:15;;;;;;;3.70;0.77;;;;;;;2.63;82.83;100333.38;5023998;28;20206;-70
2022/01/06 01:55:42;;;;;;;2.63;0.90;;;;;;;2.59;82.91;100327.38;5025057;28;20215;-70
2022/01/06 01:58:09;;;;;;;2.27;1.03;;;;;;;2.56;82.70;100343.25;5019969;28;20221;-70
2022/01/06 02:00:36;;;;;;;1.93;0.63;;;;;;;2.54;83.12;100352.09;5021115;28;20633;-70
2022/01/06 02:03:03;;;;;;;2.57;0.70;;;;;;;2.52;83.10;100364.44;5020895;28;20206;-70
2022/01/06 02:05:29;;;;;;;2.47;0.70;;;;;;;2.48;82.74;100357.59;5017415;28;20205;-70
2022/01/06 02:07:59;;;;;;;2.17;0.70;;;;;;;2.44;83.13;100365.56;5021043;28;20209;-70
2022/01/06 02:10:27;;;;;;;2.37;0.70;;;;;;;2.41;82.35;100376.19;5025472;28;20664;-70
2022/01/06 02:12:56;;;;;;;1.60;0.70;;;;;;;2.37;82.53;100384.22;5022813;28;20578;-70
2022/01/06 02:15:23;;;;;;;2.60;1.37;;;;;;;2.34;82.85;100379.06;5022528;28;20254;-70
2022/01/06 02:17:50;;;;;;;4.83;0.80;;;;;;;2.29;81.80;100384.50;5019950;28;20241;-69
2022/01/06 02:20:20;;;;;;;3.90;0.60;;;;;;;2.26;82.30;100386.34;5019478;28;20223;-69
2022/01/06 02:22:47;;;;;;;2.13;1.33;;;;;;;2.23;82.30;100392.56;5020409;28;20556;-69
2022/01/06 02:25:15;;;;;;;3.43;1.00;;;;;;;2.21;81.47;100393.53;5021953;28;20693;-69
2022/01/06 02:27:43;;;;;;;3.00;1.00;;;;;;;2.16;81.90;100395.44;5021200;28;20211;-69
2022/01/06 02:30:12;;;;;;;2.00;0.87;;;;;;;2.13;81.43;100398.19;5022806;28;20206;-69
2022/01/06 02:32:38;;;;;;;3.57;0.80;;;;;;;2.09;81.57;100402.69;5027442;28;20241;-69
2022/01/06 02:35:07;;;;;;;1.47;0.70;;;;;;;2.05;82.14;100409.78;5026155;28;20666;-69
2022/01/06 02:37:35;;;;;;;4.70;1.00;;;;;;;2.01;81.33;100402.06;5021965;28;20579;-69
2022/01/06 02:40:02;;;;;;;2.43;0.67;;;;;;;1.98;81.77;100405.63;5017918;28;20217;-69
2022/01/06 02:42:31;;;;;;;3.50;0.80;;;;;;;1.95;81.46;100416.28;5021534;28;20250;-69
2022/01/06 02:44:57;;;;;;;3.63;1.17;;;;;;;1.94;81.92;100411.06;5023522;28;20300;-69
2022/01/06 02:47:24;;;;;;;2.83;1.20;;;;;;;1.92;81.36;100408.47;5022330;28;20206;-69
2022/01/06 02:49:50;;;;;;;2.50;0.87;;;;;;;1.91;81.44;100417.25;5019142;28;20213;-69
2022/01/06 02:52:17;;;;;;;5.30;1.10;;;;;;;1.91;81.49;100413.78;5020069;28;20229;-69
2022/01/06 02:54:45;;;;;;;2.27;1.00;;;;;;;1.91;82.46;100417.25;5029565;28;20198;-69
2022/01/06 02:57:11;;;;;;;4.23;1.13;;;;;;;1.91;82.45;100421.66;5024693;28;20208;-69
2022/01/06 02:59:38;;;;;;;3.30;1.60;;;;;;;1.91;82.36;100419.03;5038190;28;20678;-69
2022/01/06 03:02:04;;;;;;;5.93;1.20;;;;;;;1.89;82.06;100428.72;5031802;28;20234;-68
2022/01/06 03:04:31;;;;;;;2.47;1.30;;;;;;;1.86;82.21;100432.28;5026596;28;20220;-69
2022/01/06 03:06:58;;;;;;;3.80;1.10;;;;;;;1.85;82.17;100434.97;5014920;28;20581;-69
2022/01/06 03:09:36;;;;;;;3.70;1.17;;;;;;;1.84;82.42;100451.63;5030901;28;20202;-69
2022/01/06 03:12:07;;;;;;;1.37;0.63;;;;;;;1.81;82.88;100449.94;5026575;28;20222;-69
2022/01/06 03:14:34;;;;;;;4.60;0.90;;;;;;;1.79;82.92;100453.56;5018311;28;20537;-69
2022/01/06 03:17:00;;;;;;;5.27;1.03;;;;;;;1.76;83.02;100462.38;5030349;28;20214;-69
2022/01/06 03:19:27;;;;;;;6.23;1.37;;;;;;;1.72;83.17;100463.38;5027263;28;20206;-69
2022/01/06 03:21:53;;;;;;;5.60;1.10;;;;;;;1.69;82.70;100464.31;5010125;28;20700;-69
2022/01/06 03:24:20;;;;;;;2.90;1.10;;;;;;;1.67;83.19;100463.50;5014909;28;20211;-69
2022/01/06 03:26:46;;;;;;;4.10;1.20;;;;;;;1.64;83.18;100474.09;5013074;28;20287;-69
2022/01/06 03:29:14;;;;;;;3.87;1.27;;;;;;;1.61;83.46;100481.22;5011152;28;20222;-69
2022/01/06 03:31:41;;;;;;;4.60;1.20;;;;;;;1.57;83.34;100485.69;5011552;28;20226;-69
2022/01/06 03:34:08;;;;;;;4.93;1.30;;;;;;;1.55;82.99;100494.50;5016191;28;20221;-69
2022/01/06 03:36:35;;;;;;;4.10;1.00;;;;;;;1.52;83.76;100492.84;5015158;28;20705;-69
2022/01/06 03:39:01;;;;;;;3.20;1.20;;;;;;;1.49;84.04;100486.81;5007952;28;20207;-69
2022/01/06 03:41:28;;;;;;;2.63;0.90;;;;;;;1.45;83.99;100491.28;5051317;22;20248;-71
2022/01/06 03:43:54;;;;;;;4.17;1.33;;;;;;;1.42;84.00;100491.38;5032466;28;20198;-70
2022/01/06 03:46:22;;;;;;;6.23;1.20;;;;;;;1.39;84.35;100501.97;5048046;28;20208;-70
2022/01/06 03:48:48;;;;;;;2.40;0.77;;;;;;;1.35;83.96;100509.06;5048393;28;20231;-70
2022/01/06 03:51:16;;;;;;;3.20;1.10;;;;;;;1.31;84.33;100509.19;5049692;28;20230;-70
2022/01/06 03:53:43;;;;;;;3.33;0.90;;;;;;;1.28;84.58;100509.25;5041230;28;20273;-69
2022/01/06 03:56:09;;;;;;;3.07;1.30;;;;;;;1.25;84.40;100519.84;5030034;28;20213;-69
2022/01/06 03:58:39;;;;;;;2.27;1.30;;;;;;;1.21;84.64;100516.44;5028251;28;20206;-68
2022/01/06 04:01:05;;;;;;;2.23;0.80;;;;;;;1.18;84.13;100527.03;5029552;28;20295;-69
2022/01/06 04:03:33;;;;;;;3.23;0.70;;;;;;;1.15;84.47;100524.47;5028922;28;20202;-69
2022/01/06 04:06:00;;;;;;;2.90;0.77;;;;;;;1.12;84.56;100529.81;5031116;28;20206;-69
2022/01/06 04:08:27;;;;;;;1.80;0.80;;;;;;;1.08;84.35;100528.16;5043077;28;20221;-69
2022/01/06 04:10:53;;;;;;;4.10;0.93;;;;;;;1.06;84.24;100529.97;5033112;28;20228;-70
2022/01/06 04:13:20;;;;;;;1.57;0.30;;;;;;;1.05;84.22;100523.00;5033670;28;20221;-69
2022/01/06 04:15:47;;;;;;;4.27;0.80;;;;;;;1.02;84.30;100530.97;5042869;28;20216;-69
2022/01/06 04:18:14;;;;;;;2.87;0.70;;;;;;;0.99;84.21;100529.28;5049609;28;20271;-69
2022/01/06 04:20:42;;;;;;;3.10;0.60;;;;;;;0.98;84.29;100537.19;5042919;28;20212;-70
2022/01/06 04:23:08;;;;;;;2.07;0.60;;;;;;;0.95;84.47;100543.34;5049269;28;20773;-69
2022/01/06 04:25:35;;;;;;;5.20;1.03;;;;;;;0.94;84.44;100541.63;5045129;28;20210;-70
2022/01/06 04:28:01;;;;;;;2.90;1.47;;;;;;;0.92;83.88;100542.56;5046988;28;20683;-69
2022/01/06 04:30:28;;;;;;;2.13;0.60;;;;;;;0.90;83.81;100549.59;5041342;28;20232;-69
2022/01/06 04:32:54;;;;;;;3.50;0.60;;;;;;;0.86;84.16;100553.22;5052608;28;20771;-69
2022/01/06 04:35:21;;;;;;;2.23;0.50;;;;;;;0.84;83.92;100560.28;5027261;28;20216;-69
2022/01/06 04:37:49;;;;;;;2.00;0.60;;;;;;;0.81;83.78;100562.97;5036300;28;20217;-70
2022/01/06 04:40:16;;;;;;;1.33;0.53;;;;;;;0.77;84.13;100562.16;5046360;28;20300;-70
2022/01/06 04:42:43;;;;;;;4.00;0.80;;;;;;;0.76;83.98;100564.81;5025425;28;20245;-69
2022/01/06 04:45:10;;;;;;;4.27;0.50;;;;;;;0.75;83.65;100570.97;5041304;28;20205;-69
2022/01/06 04:47:36;;;;;;;1.63;0.40;;;;;;;0.72;83.81;100573.69;5025044;28;20227;-70
2022/01/06 04:50:04;;;;;;;3.07;0.60;;;;;;;0.69;83.46;100572.88;5034946;28;20203;-69
2022/01/06 04:52:30;;;;;;;3.13;0.70;;;;;;;0.69;83.88;100577.25;5049637;28;20253;-69
2022/01/06 04:54:58;;;;;;;2.30;0.67;;;;;;;0.67;83.77;100590.38;5027231;28;21830;-68
2022/01/06 04:57:24;;;;;;;3.07;1.03;;;;;;;0.65;83.74;100599.19;5040011;28;20207;-70
2022/01/06 04:59:51;;;;;;;1.23;0.43;;;;;;;0.64;83.98;100611.41;5025129;28;20214;-70
2022/01/06 05:02:18;;;;;;;1.07;0.40;;;;;;;0.62;83.48;100613.22;5033115;28;20253;-68
2022/01/06 05:04:44;;;;;;;3.47;0.63;;;;;;;0.61;83.46;100627.22;5040125;28;20213;-69
2022/01/06 05:07:11;;;;;;;2.90;0.50;;;;;;;0.60;83.76;100630.72;5045460;28;20210;-69
2022/01/06 05:09:37;;;;;;;4.77;1.50;;;;;;;0.59;83.30;100633.38;5039536;28;20209;-69
2022/01/06 05:12:06;;;;;;;1.57;0.40;;;;;;;0.58;83.49;100629.03;5045888;28;20225;-69
2022/01/06 05:14:33;;;;;;;2.10;0.73;;;;;;;0.56;83.46;100636.91;5027778;28;20225;-69
2022/01/06 05:17:00;;;;;;;3.57;0.70;;;;;;;0.54;83.23;100643.94;5031908;28;20210;-69
2022/01/06 05:19:26;;;;;;;1.90;0.50;;;;;;;0.54;83.27;100645.72;5032478;28;20210;-69
2022/01/06 05:21:53;;;;;;;1.70;0.50;;;;;;;0.53;83.15;100650.13;5042805;28;20232;-69
2022/01/06 05:24:23;;;;;;;5.00;0.60;;;;;;;0.51;83.04;100645.81;5039925;28;20336;-68
2022/01/06 05:26:50;;;;;;;2.17;0.80;;;;;;;0.49;83.20;100653.69;5042371;28;20217;-69
2022/01/06 05:29:18;;;;;;;2.83;1.03;;;;;;;0.49;82.96;100658.06;5046005;28;20696;-69
2022/01/06 05:31:44;;;;;;;2.17;0.80;;;;;;;0.46;82.81;100664.25;5042697;28;20236;-69
2022/01/06 05:34:11;;;;;;;1.80;0.70;;;;;;;0.45;83.07;100666.91;5043675;28;20203;-69
2022/01/06 05:36:38;;;;;;;2.13;0.67;;;;;;;0.44;83.10;100671.25;5038376;28;20416;-68
2022/01/06 05:39:04;;;;;;;1.50;0.70;;;;;;;0.44;82.95;100684.38;5045544;28;20212;-69
2022/01/06 05:41:31;;;;;;;1.30;0.70;;;;;;;0.42;82.98;100691.41;5036393;28;20230;-69
2022/01/06 05:43:57;;;;;;;2.83;0.77;;;;;;;0.42;83.03;100693.16;5051028;28;20217;-69
2022/01/06 05:46:25;;;;;;;2.13;0.93;;;;;;;0.41;82.97;100692.28;5033323;28;20206;-69
2022/01/06 05:48:52;;;;;;;4.83;1.10;;;;;;;0.40;83.07;100685.31;5016124;28;20680;-69
2022/01/06 05:51:18;;;;;;;1.83;0.90;;;;;;;0.41;83.30;100684.44;5040603;28;20222;-69
2022/01/06 05:53:45;;;;;;;3.40;1.07;;;;;;;0.40;83.22;100685.31;5029116;28;20211;-69
2022/01/06 05:56:12;;;;;;;2.90;1.10;;;;;;;0.38;83.20;100689.72;5022041;28;20210;-68
2022/01/06 05:58:39;;;;;;;3.70;1.23;;;;;;;0.39;83.20;100696.69;5046710;28;20222;-69
2022/01/06 06:01:06;;;;;;;2.70;1.00;;;;;;;0.40;83.15;100689.69;5042609;28;20295;-69
2022/01/06 06:03:34;;;;;;;2.00;0.97;;;;;;;0.39;83.26;100691.44;5030721;28;20210;-68
2022/01/06 06:06:01;;;;;;;3.23;1.10;;;;;;;0.37;83.42;100690.63;5043592;28;20214;-69
2022/01/06 06:08:28;;;;;;;2.13;1.00;;;;;;;0.37;83.61;100695.00;5031585;28;20642;-69
2022/01/06 06:10:54;;;;;;;4.10;1.10;;;;;;;0.38;83.42;100704.59;5034895;28;20223;-69
2022/01/06 06:13:21;;;;;;;3.57;1.47;;;;;;;0.37;83.65;100708.97;5032831;28;20216;-69
2022/01/06 06:15:47;;;;;;;5.23;1.33;;;;;;;0.37;83.36;100713.34;5027740;28;20308;-69
2022/01/06 06:18:14;;;;;;;4.40;1.30;;;;;;;0.37;83.50;100713.34;5023790;28;20567;-69
2022/01/06 06:20:42;;;;;;;6.73;1.97;;;;;;;0.38;83.65;100720.31;5024133;28;20210;-69
2022/01/06 06:23:09;;;;;;;7.20;1.50;;;;;;;0.38;83.47;100720.31;5024680;28;20230;-69
2022/01/06 06:25:36;;;;;;;4.07;1.70;;;;;;;0.39;83.95;100725.50;5021358;28;20210;-68
2022/01/06 06:28:02;;;;;;;5.83;1.37;;;;;;;0.39;83.55;100730.75;5028974;28;20218;-69
2022/01/06 06:30:29;;;;;;;3.60;1.50;;;;;;;0.41;83.60;100731.59;5033343;28;20233;-69
2022/01/06 06:32:55;;;;;;;2.17;0.97;;;;;;;0.40;83.79;100732.47;5029971;28;20229;-70
2022/01/06 06:35:22;;;;;;;3.23;1.20;;;;;;;0.41;83.75;100738.59;5032155;28;20205;-69
2022/01/06 06:37:50;;;;;;;3.30;1.23;;;;;;;0.41;83.61;100741.19;5031839;28;20206;-68
2022/01/06 06:40:19;;;;;;;3.27;1.10;;;;;;;0.42;83.95;100753.41;5032211;28;20212;-68
2022/01/06 06:42:45;;;;;;;4.47;1.30;;;;;;;0.40;84.11;100753.44;5026008;28;20226;-68
2022/01/06 06:45:12;;;;;;;4.37;1.50;;;;;;;0.42;84.08;100771.75;5030851;28;20229;-69
2022/01/06 06:47:39;;;;;;;3.37;1.20;;;;;;;0.41;83.85;100770.88;5028762;28;20216;-69
2022/01/06 06:50:07;;;;;;;4.30;1.20;;;;;;;0.40;83.81;100782.25;5027772;28;20255;-68
2022/01/06 06:52:33;;;;;;;6.43;1.33;;;;;;;0.39;83.66;100780.53;5032423;28;20218;-69
2022/01/06 06:55:01;;;;;;;2.90;1.13;;;;;;;0.38;83.79;100778.81;5027739;28;20202;-69
2022/01/06 06:57:27;;;;;;;4.77;1.40;;;;;;;0.39;83.71;100785.78;5034233;28;20217;-69
2022/01/06 06:59:54;;;;;;;5.00;1.60;;;;;;;0.39;83.68;100785.78;5037375;28;20214;-68
2022/01/06 07:02:20;;;;;;;4.20;1.50;;;;;;;0.37;83.76;100795.41;5025674;28;20230;-68
2022/01/06 07:04:47;;;;;;;3.67;1.57;;;;;;;0.37;83.88;100790.16;5032563;28;20224;-68
2022/01/06 07:07:15;;;;;;;4.10;1.43;;;;;;;0.36;83.84;100793.69;5036448;28;20719;-69
2022/01/06 07:09:41;;;;;;;4.17;1.60;;;;;;;0.36;83.30;100793.69;5041744;28;20216;-68
2022/01/06 07:12:10;;;;;;;3.70;1.53;;;;;;;0.34;83.53;100791.13;5040711;28;20751;-69
2022/01/06 07:14:36;;;;;;;2.50;1.40;;;;;;;0.36;83.45;100795.47;5012402;28;20213;-69
2022/01/06 07:17:03;;;;;;;5.07;1.83;;;;;;;0.34;83.61;100801.59;5029144;28;20213;-68
2022/01/06 07:19:30;;;;;;;3.47;1.80;;;;;;;0.36;83.56;100803.34;5041274;28;20205;-69
2022/01/06 07:21:56;;;;;;;4.47;2.07;;;;;;;0.33;83.40;100799.00;5037127;28;20311;-69
2022/01/06 07:24:23;;;;;;;8.00;2.63;;;;;;;0.32;83.42;100813.88;5041781;28;20214;-69
2022/01/06 07:26:50;;;;;;;3.03;1.90;;;;;;;0.34;83.19;100816.47;5034190;28;20210;-69
2022/01/06 07:29:18;;;;;;;5.83;2.50;;;;;;;0.33;83.59;100818.22;5038080;28;20213;-68
2022/01/06 07:31:44;;;;;;;6.60;2.70;;;;;;;0.34;83.31;100817.31;5034164;28;20233;-69
2022/01/06 07:34:11;;;;;;;4.53;2.40;;;;;;;0.34;83.46;100808.59;5041704;28;20207;-69
2022/01/06 07:36:38;;;;;;;5.90;1.97;;;;;;;0.34;83.61;100811.22;5028830;28;20206;-68
2022/01/06 07:39:05;;;;;;;3.60;1.80;;;;;;;0.35;83.67;100818.19;5041849;28;20203;-70
2022/01/06 07:41:31;;;;;;;4.73;1.87;;;;;;;0.36;83.51;100809.41;5019983;28;20646;-67
2022/01/06 07:43:58;;;;;;;5.40;2.40;;;;;;;0.37;83.39;100818.13;5041544;28;20209;-68
2022/01/06 07:46:26;;;;;;;4.87;2.37;;;;;;;0.37;83.61;100829.47;5031501;28;20203;-69
2022/01/06 07:48:58;;;;;;;6.93;2.87;;;;;;;0.39;83.54;100832.94;5030729;28;20216;-69
2022/01/06 07:51:26;;;;;;;8.33;3.57;;;;;;;0.40;83.52;100836.41;5042696;28;20691;-70
2022/01/06 07:53:53;;;;;;;7.33;3.77;;;;;;;0.41;83.68;100841.63;5034585;28;20761;-69
2022/01/06 07:56:20;;;;;;;7.27;3.70;;;;;;;0.44;83.70;100843.34;5023565;28;20664;-69
2022/01/06 07:58:47;;;;;;;6.17;3.90;;;;;;;0.44;84.05;100851.19;5032271;28;20220;-69
2022/01/06 08:01:13;;;;;;;9.00;4.27;;;;;;;0.45;83.87;100861.66;5039416;28;20240;-67
2022/01/06 08:03:42;;;;;;;8.23;4.00;;;;;;;0.47;84.00;100859.88;5029847;28;20249;-68
2022/01/06 08:06:09;;;;;;;6.47;3.80;;;;;;;0.49;83.96;100868.56;5038094;28;20206;-68
2022/01/06 08:08:36;;;;;;;6.73;4.13;;;;;;;0.50;84.01;100872.06;5027874;28;20210;-67
2022/01/06 08:11:02;;;;;;;8.77;4.30;;;;;;;0.51;84.19;100868.53;5031007;28;20209;-69
2022/01/06 08:13:29;;;;;;;9.53;5.20;;;;;;;0.52;84.14;100863.28;5029939;28;20207;-69
2022/01/06 08:15:55;;;;;;;6.13;3.67;;;;;;;0.53;84.40;100866.75;5025942;28;20209;-68
2022/01/06 08:18:22;;;;;;;6.20;3.63;;;;;;;0.52;84.19;100859.78;5037735;28;20873;-68
2022/01/06 08:20:50;;;;;;;10.40;3.80;;;;;;;0.53;84.31;100872.00;5030126;28;20210;-68
2022/01/06 08:23:17;;;;;;;10.17;3.90;;;;;;;0.53;84.15;100875.47;5034375;28;20245;-68
2022/01/06 08:25:43;;;;;;;8.30;3.70;;;;;;;0.53;84.32;100877.25;5033844;28;20214;-69
2022/01/06 08:28:10;;;;;;;8.43;3.50;;;;;;;0.53;84.69;100880.72;5037167;28;20229;-68
2022/01/06 08:30:36;;;;;;;5.07;3.20;;;;;;;0.54;84.83;100881.56;5030685;28;20209;-68
2022/01/06 08:33:03;;;;;;;7.10;3.50;;;;;;;0.54;84.58;100887.66;5026812;28;20222;-67
2022/01/06 08:35:30;;;;;;;5.30;3.50;;;;;;;0.55;84.58;100892.00;5029160;28;20214;-70
2022/01/06 08:37:58;;;;;;;9.77;3.80;;;;;;;0.56;84.98;100896.38;5025437;28;20206;-68
2022/01/06 08:40:25;;;;;;;8.23;3.57;;;;;;;0.57;84.78;100895.47;5027950;28;20205;-69
2022/01/06 08:42:51;;;;;;;7.27;3.43;;;;;;;0.58;84.92;100896.34;5031410;28;20243;-68
2022/01/06 08:45:18;;;;;;;7.53;5.47;;;;;;;0.59;84.91;100893.69;5032992;28;20213;-68
2022/01/06 08:47:45;;;;;;;7.87;4.43;;;;;;;0.61;84.97;100894.53;5025440;28;20206;-69
2022/01/06 08:50:12;;;;;;;8.63;5.23;;;;;;;0.64;85.02;100896.22;5017626;28;20202;-67
2022/01/06 08:52:40;;;;;;;6.20;3.90;;;;;;;0.67;85.30;100889.19;5013424;28;20600;-68
2022/01/06 08:55:10;;;;;;;8.23;3.80;;;;;;;0.69;85.18;100897.03;5019232;28;20679;-69
2022/01/06 08:57:37;;;;;;;8.50;4.30;;;;;;;0.73;85.16;100905.66;5022746;28;20209;-68
2022/01/06 09:00:06;;;;;;;8.47;4.13;;;;;;;0.76;85.30;100901.22;5019700;28;20207;-69
2022/01/06 09:02:33;;;;;;;8.10;4.10;;;;;;;0.80;85.39;100905.53;5021925;28;20225;-68
2022/01/06 09:05:02;;;;;;;7.30;4.37;;;;;;;0.84;85.44;100906.34;5024855;28;20202;-68
2022/01/06 09:07:29;;;;;;;8.73;3.93;;;;;;;0.86;85.81;100915.06;5023781;28;20704;-69
2022/01/06 09:09:55;;;;;;;7.00;3.73;;;;;;;0.90;85.67;100911.44;5017350;28;20195;-69
2022/01/06 09:12:23;;;;;;;9.90;3.87;;;;;;;0.93;85.81;100911.41;5025397;28;20224;-67
2022/01/06 09:14:50;;;;;;;8.07;3.87;;;;;;;0.95;86.12;100923.59;5024379;28;20676;-72
2022/01/06 09:17:17;;;;;;;8.10;3.77;;;;;;;0.99;86.50;100930.50;5027176;28;20210;-72
2022/01/06 09:19:44;;;;;;;6.87;3.30;;;;;;;1.02;85.88;100926.97;5030353;28;20206;-71
2022/01/06 09:22:10;;;;;;;5.50;3.00;;;;;;;1.07;86.22;100929.50;5022166;28;20894;-73
2022/01/06 09:24:37;;;;;;;7.90;2.93;;;;;;;1.09;85.82;100931.16;5033528;28;20217;-72
2022/01/06 09:27:04;;;;;;;4.73;2.97;;;;;;;1.11;86.13;100926.75;5025958;28;20214;-72
2022/01/06 09:29:32;;;;;;;8.33;2.30;;;;;;;1.15;86.34;100933.69;5026507;28;21427;-71
2022/01/06 09:31:58;;;;;;;7.40;2.87;;;;;;;1.20;86.29;100934.47;5026289;28;20226;-71
2022/01/06 09:34:25;;;;;;;5.77;2.70;;;;;;;1.24;85.82;100937.88;5030033;28;20203;-71
2022/01/06 09:36:52;;;;;;;8.70;2.50;;;;;;;1.30;85.90;100948.25;5026908;28;20203;-70
2022/01/06 09:39:18;;;;;;;4.80;2.50;;;;;;;1.36;86.04;100949.00;5030115;28;20581;-70
2022/01/06 09:41:45;;;;;;;4.40;2.00;;;;;;;1.44;85.54;100947.94;5041359;22;21088;-78
2022/01/06 09:44:12;;;;;;;5.60;2.70;;;;;;;1.50;85.98;100945.19;5053864;28;20267;-79
2022/01/06 09:46:39;;;;;;;11.77;6.10;;;;;;;1.57;85.90;100952.06;5054049;28;20202;-81
2022/01/06 09:49:07;;;;;;;6.93;4.23;;;;;;;1.62;85.32;100955.41;5045230;28;20230;-77
2022/01/06 09:51:33;;;;;;;9.40;3.53;;;;;;;1.69;85.43;100962.28;5048609;28;20237;-81
2022/01/06 09:54:01;;;;;;;12.13;6.07;;;;;;;1.74;85.13;100963.06;5047183;28;20202;-80
2022/01/06 09:56:29;;;;;;;9.50;4.27;;;;;;;1.80;85.23;100973.41;5045532;28;21338;-79
2022/01/06 09:58:56;;;;;;;10.40;4.30;;;;;;;1.83;84.45;100969.84;5042239;28;20740;-79
2022/01/06 10:01:23;;;;;;;14.07;7.57;;;;;;;1.85;84.71;100968.91;5044735;28;20202;-77
2022/01/06 10:03:51;;;;;;;19.90;12.23;;;;;;;1.87;84.02;100967.13;5042282;28;20225;-79
2022/01/06 10:06:21;;;;;;;22.50;12.83;;;;;;;1.91;83.55;100970.56;5045546;28;20576;-82
2022/01/06 10:08:51;;;;;;;6.67;3.80;;;;;;;1.93;83.78;100972.25;5042270;28;20232;-81
2022/01/06 10:11:20;;;;;;;12.37;6.53;;;;;;;1.98;83.44;100972.97;5043604;28;20210;-81
2022/01/06 10:13:56;;;;;;;6.33;3.87;;;;;;;2.01;84.15;100970.28;5045149;28;20228;-80
2022/01/06 10:16:24;;;;;;;6.43;4.80;;;;;;;2.05;83.67;100971.94;5050868;28;20213;-81
2022/01/06 10:19:01;;;;;;;7.77;4.20;;;;;;;2.07;83.69;100969.28;5049701;28;20279;-81
2022/01/06 10:21:32;;;;;;;7.50;4.37;;;;;;;2.09;83.46;100972.75;5044461;28;20198;-79
2022/01/06 10:24:00;;;;;;;13.33;9.43;;;;;;;2.11;82.90;100978.84;5048554;28;20226;-80
2022/01/06 10:26:27;;;;;;;14.23;10.03;;;;;;;2.13;83.03;100973.56;5046059;28;20206;-82
2022/01/06 10:28:54;;;;;;;11.97;9.57;;;;;;;2.14;83.01;100977.91;5044592;28;20711;-79
2022/01/06 10:31:24;;;;;;;16.23;12.53;;;;;;;2.14;83.05;100973.53;5043437;28;20612;-81
2022/01/06 10:33:50;;;;;;;9.60;6.47;;;;;;;2.17;83.15;100964.66;5044378;28;20598;-80
2022/01/06 10:36:18;;;;;;;7.67;5.00;;;;;;;2.18;83.24;100971.66;5048116;28;20289;-79
2022/01/06 10:38:53;;;;;;;9.20;5.30;;;;;;;2.20;83.65;100972.50;5047791;28;20236;-79
2022/01/06 10:41:20;;;;;;;8.40;5.47;;;;;;;2.23;83.48;100975.03;5044973;28;20202;-81
2022/01/06 10:43:51;;;;;;;9.40;4.30;;;;;;;2.24;82.87;100980.28;5044593;28;20224;-80
2022/01/06 10:46:31;;;;;;;11.20;6.23;;;;;;;2.25;83.31;100978.50;5047597;28;20824;-80
2022/01/06 10:48:59;;;;;;;11.53;5.50;;;;;;;2.27;83.45;100981.97;5048452;28;20712;-80
2022/01/06 10:51:39;;;;;;;13.70;7.17;;;;;;;2.30;83.39;100981.91;5047808;28;20240;-81
2022/01/06 10:54:10;;;;;;;11.23;5.87;;;;;;;2.29;82.75;100981.03;5045023;28;20186;-81
2022/01/06 10:56:36;;;;;;;8.30;5.70;;;;;;;2.32;83.21;100985.34;5045227;28;20198;-81
2022/01/06 10:59:03;;;;;;;9.97;4.53;;;;;;;2.35;82.70;100998.41;5045700;28;20234;-82
2022/01/06 11:01:34;;;;;;;10.53;5.10;;;;;;;2.38;82.94;100987.81;5049048;28;20201;-80
2022/01/06 11:04:00;;;;;;;25.27;13.83;;;;;;;2.41;83.06;100995.63;5043529;28;20233;-79
2022/01/06 11:06:27;;;;;;;13.17;9.10;;;;;;;2.41;83.23;100993.00;5044244;28;20293;-80
2022/01/06 11:08:56;;;;;;;10.17;7.97;;;;;;;2.42;83.14;100989.47;5043586;28;20226;-81
2022/01/06 11:14:17;;;;;;;13.43;8.00;;;;;;;2.47;83.00;100995.50;5027788;28;20680;-83
2022/01/06 11:16:44;;;;;;;25.00;17.10;;;;;;;2.49;82.42;100988.44;5046568;28;20226;-80
2022/01/06 11:19:12;;;;;;;19.70;13.70;;;;;;;2.50;82.86;100984.91;5046359;28;20237;-82
2022/01/06 11:21:41;;;;;;;19.57;17.53;;;;;;;2.51;82.86;100994.50;5043693;28;20214;-82
2022/01/06 11:24:13;;;;;;;12.90;7.23;;;;;;;2.53;82.55;101003.19;5044484;28;20225;-79
2022/01/06 11:26:41;;;;;;;12.67;6.33;;;;;;;2.55;82.66;101008.44;5044769;28;20211;-79
2022/01/06 11:29:08;;;;;;;12.63;7.33;;;;;;;2.56;82.72;101011.03;5043689;28;20232;-79
2022/01/06 11:31:40;;;;;;;13.57;9.83;;;;;;;2.57;82.74;100998.75;5049591;28;20651;-78
2022/01/06 11:34:13;;;;;;;11.70;5.63;;;;;;;2.56;83.02;101007.53;5041544;28;20208;-81
2022/01/06 11:36:40;;;;;;;12.57;5.60;;;;;;;2.58;82.55;101001.34;5046798;28;20267;-79
2022/01/06 11:39:09;;;;;;;19.87;12.70;;;;;;;2.60;82.23;100996.91;5046868;28;20228;-78
2022/01/06 11:41:39;;;;;;;10.57;5.63;;;;;;;2.60;82.56;101001.28;5050762;28;20572;-81